sensor_id;sensor_type;location;lat;lon;timestamp;P1;durP1;ratioP1;P2;durP2;ratioP2
73107;SDS011;61559;50.476;15.588;2024-03-08T00:02:17;16.90;;;8.00;;
73107;SDS011;61559;50.476;15.588;2024-03-08T00:04:48;18.00;;;8.80;;
73107;SDS011;61559;50.476;15.588;2024-03-08T00:07:21;24.10;;;10.90;;
73107;SDS011;61559;50.476;15.588;2024-03-08T00:09:53;28.10;;;11.40;;
73107;SDS011;61559;50.476;15.588;2024-03-08T00:12:24;25.70;;;11.40;;
73107;SDS011;61559;50.476;15.588;2024-03-08T00:14:55;24.00;;;10.80;;
73107;SDS011;61559;50.476;15.588;2024-03-08T00:17:29;25.30;;;10.80;;
73107;SDS011;61559;50.476;15.588;2024-03-08T00:20:00;26.90;;;11.10;;
73107;SDS011;61559;50.476;15.588;2024-03-08T00:22:36;25.60;;;10.40;;
73107;SDS011;61559;50.476;15.588;2024-03-08T00:25:08;24.70;;;10.30;;
73107;SDS011;61559;50.476;15.588;2024-03-08T00:27:40;31.20;;;12.90;;
73107;SDS011;61559;50.476;15.588;2024-03-08T00:30:13;29.60;;;11.90;;
73107;SDS011;61559;50.476;15.588;2024-03-08T00:32:45;22.00;;;11.30;;
73107;SDS011;61559;50.476;15.588;2024-03-08T00:35:17;27.60;;;11.50;;
73107;SDS011;61559;50.476;15.588;2024-03-08T00:37:48;25.20;;;10.40;;
73107;SDS011;61559;50.476;15.588;2024-03-08T00:40:20;29.10;;;11.50;;
73107;SDS011;61559;50.476;15.588;2024-03-08T00:42:51;24.60;;;11.00;;
73107;SDS011;61559;50.476;15.588;2024-03-08T00:45:22;23.10;;;10.80;;
73107;SDS011;61559;50.476;15.588;2024-03-08T00:50:24;23.00;;;9.40;;
73107;SDS011;61559;50.476;15.588;2024-03-08T00:52:55;24.50;;;10.90;;
73107;SDS011;61559;50.476;15.588;2024-03-08T00:55:26;22.00;;;10.40;;
73107;SDS011;61559;50.476;15.588;2024-03-08T00:57:58;25.80;;;12.10;;
73107;SDS011;61559;50.476;15.588;2024-03-08T01:00:30;27.50;;;12.00;;
73107;SDS011;61559;50.476;15.588;2024-03-08T01:03:03;26.10;;;12.40;;
73107;SDS011;61559;50.476;15.588;2024-03-08T01:05:35;25.30;;;12.00;;
73107;SDS011;61559;50.476;15.588;2024-03-08T01:08:07;24.60;;;11.80;;
73107;SDS011;61559;50.476;15.588;2024-03-08T01:10:40;24.50;;;12.90;;
73107;SDS011;61559;50.476;15.588;2024-03-08T01:13:11;27.80;;;11.50;;
73107;SDS011;61559;50.476;15.588;2024-03-08T01:15:44;22.00;;;10.50;;
73107;SDS011;61559;50.476;15.588;2024-03-08T01:18:16;26.80;;;11.70;;
73107;SDS011;61559;50.476;15.588;2024-03-08T01:20:54;27.00;;;12.10;;
73107;SDS011;61559;50.476;15.588;2024-03-08T01:23:26;27.40;;;12.10;;
73107;SDS011;61559;50.476;15.588;2024-03-08T01:28:27;27.40;;;11.30;;
73107;SDS011;61559;50.476;15.588;2024-03-08T01:31:00;29.50;;;12.10;;
73107;SDS011;61559;50.476;15.588;2024-03-08T01:33:32;28.30;;;12.60;;
73107;SDS011;61559;50.476;15.588;2024-03-08T01:38:33;25.50;;;12.50;;
73107;SDS011;61559;50.476;15.588;2024-03-08T01:41:05;33.50;;;13.80;;
73107;SDS011;61559;50.476;15.588;2024-03-08T01:43:37;26.30;;;12.50;;
73107;SDS011;61559;50.476;15.588;2024-03-08T01:46:08;29.30;;;13.30;;
73107;SDS011;61559;50.476;15.588;2024-03-08T01:48:40;27.60;;;12.10;;
73107;SDS011;61559;50.476;15.588;2024-03-08T01:51:13;31.90;;;12.40;;
73107;SDS011;61559;50.476;15.588;2024-03-08T01:53:45;28.20;;;13.40;;
73107;SDS011;61559;50.476;15.588;2024-03-08T01:56:17;28.40;;;12.80;;
73107;SDS011;61559;50.476;15.588;2024-03-08T01:58:48;26.40;;;12.40;;
73107;SDS011;61559;50.476;15.588;2024-03-08T02:01:20;26.70;;;12.30;;
73107;SDS011;61559;50.476;15.588;2024-03-08T02:03:52;27.60;;;11.80;;
73107;SDS011;61559;50.476;15.588;2024-03-08T02:06:24;30.40;;;14.30;;
73107;SDS011;61559;50.476;15.588;2024-03-08T02:08:55;23.10;;;11.50;;
73107;SDS011;61559;50.476;15.588;2024-03-08T02:11:46;25.40;;;11.30;;
73107;SDS011;61559;50.476;15.588;2024-03-08T02:14:18;32.00;;;13.60;;
73107;SDS011;61559;50.476;15.588;2024-03-08T02:19:20;21.10;;;10.10;;
73107;SDS011;61559;50.476;15.588;2024-03-08T02:21:51;23.20;;;10.50;;
73107;SDS011;61559;50.476;15.588;2024-03-08T02:24:22;29.60;;;11.80;;
73107;SDS011;61559;50.476;15.588;2024-03-08T02:26:55;28.60;;;12.50;;
73107;SDS011;61559;50.476;15.588;2024-03-08T02:29:26;25.60;;;11.80;;
73107;SDS011;61559;50.476;15.588;2024-03-08T02:31:58;30.90;;;13.30;;
73107;SDS011;61559;50.476;15.588;2024-03-08T02:34:31;27.60;;;12.90;;
73107;SDS011;61559;50.476;15.588;2024-03-08T02:37:02;26.30;;;11.30;;
73107;SDS011;61559;50.476;15.588;2024-03-08T02:39:34;28.70;;;13.40;;
73107;SDS011;61559;50.476;15.588;2024-03-08T02:42:06;28.20;;;12.70;;
73107;SDS011;61559;50.476;15.588;2024-03-08T02:44:39;30.80;;;13.90;;
73107;SDS011;61559;50.476;15.588;2024-03-08T02:47:13;29.90;;;12.80;;
73107;SDS011;61559;50.476;15.588;2024-03-08T02:49:46;26.40;;;13.10;;
73107;SDS011;61559;50.476;15.588;2024-03-08T02:52:18;26.70;;;12.80;;
73107;SDS011;61559;50.476;15.588;2024-03-08T02:54:50;30.30;;;13.40;;
73107;SDS011;61559;50.476;15.588;2024-03-08T02:57:21;27.20;;;13.30;;
73107;SDS011;61559;50.476;15.588;2024-03-08T02:59:52;27.60;;;12.60;;
73107;SDS011;61559;50.476;15.588;2024-03-08T03:02:24;25.50;;;12.10;;
73107;SDS011;61559;50.476;15.588;2024-03-08T03:04:56;31.20;;;14.40;;
73107;SDS011;61559;50.476;15.588;2024-03-08T03:07:32;30.20;;;12.40;;
73107;SDS011;61559;50.476;15.588;2024-03-08T03:12:35;26.90;;;11.00;;
73107;SDS011;61559;50.476;15.588;2024-03-08T03:15:07;28.70;;;12.70;;
73107;SDS011;61559;50.476;15.588;2024-03-08T03:17:40;27.70;;;12.80;;
73107;SDS011;61559;50.476;15.588;2024-03-08T03:20:14;26.50;;;12.20;;
73107;SDS011;61559;50.476;15.588;2024-03-08T03:22:51;25.40;;;11.60;;
73107;SDS011;61559;50.476;15.588;2024-03-08T03:25:25;27.60;;;12.40;;
73107;SDS011;61559;50.476;15.588;2024-03-08T03:28:01;26.60;;;12.70;;
73107;SDS011;61559;50.476;15.588;2024-03-08T03:30:33;28.20;;;13.40;;
73107;SDS011;61559;50.476;15.588;2024-03-08T03:33:04;29.10;;;13.80;;
73107;SDS011;61559;50.476;15.588;2024-03-08T03:35:36;24.40;;;12.30;;
73107;SDS011;61559;50.476;15.588;2024-03-08T03:38:08;25.60;;;12.10;;
73107;SDS011;61559;50.476;15.588;2024-03-08T03:40:39;31.90;;;13.70;;
73107;SDS011;61559;50.476;15.588;2024-03-08T03:43:13;30.50;;;14.30;;
73107;SDS011;61559;50.476;15.588;2024-03-08T03:45:45;26.90;;;13.70;;
73107;SDS011;61559;50.476;15.588;2024-03-08T03:48:16;29.50;;;12.80;;
73107;SDS011;61559;50.476;15.588;2024-03-08T03:50:48;26.30;;;11.00;;
73107;SDS011;61559;50.476;15.588;2024-03-08T03:53:19;26.80;;;11.80;;
73107;SDS011;61559;50.476;15.588;2024-03-08T03:55:51;25.10;;;12.20;;
73107;SDS011;61559;50.476;15.588;2024-03-08T03:58:23;27.50;;;13.10;;
73107;SDS011;61559;50.476;15.588;2024-03-08T04:00:55;30.40;;;13.00;;
73107;SDS011;61559;50.476;15.588;2024-03-08T04:03:26;31.40;;;13.70;;
73107;SDS011;61559;50.476;15.588;2024-03-08T04:05:58;24.60;;;11.80;;
73107;SDS011;61559;50.476;15.588;2024-03-08T04:08:31;29.40;;;12.70;;
73107;SDS011;61559;50.476;15.588;2024-03-08T04:11:03;26.90;;;11.80;;
73107;SDS011;61559;50.476;15.588;2024-03-08T04:13:34;27.00;;;12.10;;
73107;SDS011;61559;50.476;15.588;2024-03-08T04:16:06;27.00;;;11.70;;
73107;SDS011;61559;50.476;15.588;2024-03-08T04:18:39;30.50;;;12.30;;
73107;SDS011;61559;50.476;15.588;2024-03-08T04:21:12;28.40;;;11.50;;
73107;SDS011;61559;50.476;15.588;2024-03-08T04:23:44;26.60;;;12.40;;
73107;SDS011;61559;50.476;15.588;2024-03-08T04:26:15;25.30;;;11.80;;
73107;SDS011;61559;50.476;15.588;2024-03-08T04:28:47;23.80;;;11.30;;
73107;SDS011;61559;50.476;15.588;2024-03-08T04:31:18;25.60;;;11.00;;
73107;SDS011;61559;50.476;15.588;2024-03-08T04:33:50;26.10;;;11.70;;
73107;SDS011;61559;50.476;15.588;2024-03-08T04:36:22;27.20;;;12.30;;
73107;SDS011;61559;50.476;15.588;2024-03-08T04:38:53;26.80;;;12.40;;
73107;SDS011;61559;50.476;15.588;2024-03-08T04:41:24;31.60;;;13.20;;
73107;SDS011;61559;50.476;15.588;2024-03-08T04:43:56;27.20;;;13.00;;
73107;SDS011;61559;50.476;15.588;2024-03-08T04:46:27;29.90;;;12.90;;
73107;SDS011;61559;50.476;15.588;2024-03-08T04:48:58;33.10;;;13.70;;
73107;SDS011;61559;50.476;15.588;2024-03-08T04:51:31;23.80;;;12.70;;
73107;SDS011;61559;50.476;15.588;2024-03-08T04:54:02;31.50;;;15.10;;
73107;SDS011;61559;50.476;15.588;2024-03-08T04:56:34;33.70;;;13.90;;
73107;SDS011;61559;50.476;15.588;2024-03-08T04:59:05;34.40;;;14.00;;
73107;SDS011;61559;50.476;15.588;2024-03-08T05:04:23;23.70;;;11.30;;
73107;SDS011;61559;50.476;15.588;2024-03-08T05:09:25;22.50;;;9.60;;
73107;SDS011;61559;50.476;15.588;2024-03-08T05:11:57;20.30;;;10.10;;
73107;SDS011;61559;50.476;15.588;2024-03-08T05:14:31;20.60;;;11.70;;
73107;SDS011;61559;50.476;15.588;2024-03-08T05:17:03;27.60;;;12.50;;
73107;SDS011;61559;50.476;15.588;2024-03-08T05:19:35;22.10;;;10.80;;
73107;SDS011;61559;50.476;15.588;2024-03-08T05:22:07;28.00;;;12.70;;
73107;SDS011;61559;50.476;15.588;2024-03-08T05:24:38;33.10;;;13.30;;
73107;SDS011;61559;50.476;15.588;2024-03-08T05:27:09;25.10;;;12.90;;
73107;SDS011;61559;50.476;15.588;2024-03-08T05:29:41;30.50;;;13.00;;
73107;SDS011;61559;50.476;15.588;2024-03-08T05:32:14;37.90;;;14.50;;
73107;SDS011;61559;50.476;15.588;2024-03-08T05:35:05;25.40;;;11.30;;
73107;SDS011;61559;50.476;15.588;2024-03-08T05:37:38;21.70;;;10.60;;
73107;SDS011;61559;50.476;15.588;2024-03-08T05:40:10;28.50;;;11.80;;
73107;SDS011;61559;50.476;15.588;2024-03-08T05:42:46;25.50;;;11.80;;
73107;SDS011;61559;50.476;15.588;2024-03-08T05:45:17;36.50;;;13.70;;
73107;SDS011;61559;50.476;15.588;2024-03-08T05:47:48;26.40;;;11.90;;
73107;SDS011;61559;50.476;15.588;2024-03-08T05:50:20;24.60;;;10.70;;
73107;SDS011;61559;50.476;15.588;2024-03-08T05:52:51;29.80;;;12.30;;
73107;SDS011;61559;50.476;15.588;2024-03-08T05:55:23;36.00;;;13.60;;
73107;SDS011;61559;50.476;15.588;2024-03-08T05:57:55;27.60;;;12.80;;
73107;SDS011;61559;50.476;15.588;2024-03-08T06:00:26;29.40;;;12.90;;
73107;SDS011;61559;50.476;15.588;2024-03-08T06:03:11;25.00;;;12.40;;
73107;SDS011;61559;50.476;15.588;2024-03-08T06:05:47;30.20;;;13.10;;
73107;SDS011;61559;50.476;15.588;2024-03-08T06:08:22;29.80;;;12.90;;
73107;SDS011;61559;50.476;15.588;2024-03-08T06:10:58;31.50;;;13.10;;
73107;SDS011;61559;50.476;15.588;2024-03-08T06:13:32;24.00;;;11.70;;
73107;SDS011;61559;50.476;15.588;2024-03-08T06:16:07;25.10;;;10.70;;
73107;SDS011;61559;50.476;15.588;2024-03-08T06:18:38;35.50;;;13.00;;
73107;SDS011;61559;50.476;15.588;2024-03-08T06:21:10;27.50;;;11.90;;
73107;SDS011;61559;50.476;15.588;2024-03-08T06:23:44;29.80;;;11.80;;
73107;SDS011;61559;50.476;15.588;2024-03-08T06:26:15;30.40;;;13.40;;
73107;SDS011;61559;50.476;15.588;2024-03-08T06:28:48;26.50;;;12.70;;
73107;SDS011;61559;50.476;15.588;2024-03-08T06:31:19;28.00;;;12.60;;
73107;SDS011;61559;50.476;15.588;2024-03-08T06:33:50;27.60;;;12.40;;
73107;SDS011;61559;50.476;15.588;2024-03-08T06:36:25;29.70;;;12.60;;
73107;SDS011;61559;50.476;15.588;2024-03-08T06:38:56;25.00;;;11.00;;
73107;SDS011;61559;50.476;15.588;2024-03-08T06:41:30;27.30;;;11.70;;
73107;SDS011;61559;50.476;15.588;2024-03-08T06:44:05;23.60;;;10.90;;
73107;SDS011;61559;50.476;15.588;2024-03-08T06:46:37;24.00;;;10.60;;
73107;SDS011;61559;50.476;15.588;2024-03-08T06:49:09;28.00;;;12.90;;
73107;SDS011;61559;50.476;15.588;2024-03-08T06:51:41;29.00;;;13.20;;
73107;SDS011;61559;50.476;15.588;2024-03-08T06:54:15;28.30;;;13.10;;
73107;SDS011;61559;50.476;15.588;2024-03-08T06:56:48;24.80;;;11.10;;
73107;SDS011;61559;50.476;15.588;2024-03-08T06:59:19;28.20;;;12.20;;
73107;SDS011;61559;50.476;15.588;2024-03-08T07:01:52;24.80;;;11.00;;
73107;SDS011;61559;50.476;15.588;2024-03-08T07:04:35;29.10;;;11.70;;
73107;SDS011;61559;50.476;15.588;2024-03-08T07:07:14;20.10;;;10.60;;
73107;SDS011;61559;50.476;15.588;2024-03-08T07:09:48;25.20;;;10.90;;
73107;SDS011;61559;50.476;15.588;2024-03-08T07:12:20;24.40;;;10.90;;
73107;SDS011;61559;50.476;15.588;2024-03-08T07:14:53;23.50;;;10.40;;
73107;SDS011;61559;50.476;15.588;2024-03-08T07:17:24;26.50;;;11.90;;
73107;SDS011;61559;50.476;15.588;2024-03-08T07:22:28;21.20;;;10.00;;
73107;SDS011;61559;50.476;15.588;2024-03-08T07:25:00;22.10;;;10.00;;
73107;SDS011;61559;50.476;15.588;2024-03-08T07:27:48;22.60;;;10.40;;
73107;SDS011;61559;50.476;15.588;2024-03-08T07:30:22;22.90;;;11.00;;
73107;SDS011;61559;50.476;15.588;2024-03-08T07:33:15;23.00;;;11.30;;
73107;SDS011;61559;50.476;15.588;2024-03-08T07:35:50;25.00;;;11.50;;
73107;SDS011;61559;50.476;15.588;2024-03-08T07:38:24;24.70;;;11.30;;
73107;SDS011;61559;50.476;15.588;2024-03-08T07:40:56;24.60;;;9.70;;
73107;SDS011;61559;50.476;15.588;2024-03-08T07:43:31;19.40;;;9.50;;
73107;SDS011;61559;50.476;15.588;2024-03-08T07:48:33;26.60;;;10.90;;
73107;SDS011;61559;50.476;15.588;2024-03-08T07:51:05;21.10;;;9.40;;
73107;SDS011;61559;50.476;15.588;2024-03-08T07:53:39;21.90;;;10.70;;
73107;SDS011;61559;50.476;15.588;2024-03-08T07:56:12;22.00;;;11.30;;
73107;SDS011;61559;50.476;15.588;2024-03-08T07:58:46;20.40;;;8.90;;
73107;SDS011;61559;50.476;15.588;2024-03-08T08:01:18;21.80;;;9.80;;
73107;SDS011;61559;50.476;15.588;2024-03-08T08:03:50;17.80;;;9.50;;
73107;SDS011;61559;50.476;15.588;2024-03-08T08:06:22;22.20;;;9.20;;
73107;SDS011;61559;50.476;15.588;2024-03-08T08:08:54;19.70;;;9.60;;
73107;SDS011;61559;50.476;15.588;2024-03-08T08:11:27;21.90;;;9.80;;
73107;SDS011;61559;50.476;15.588;2024-03-08T08:13:59;17.50;;;8.90;;
73107;SDS011;61559;50.476;15.588;2024-03-08T08:16:32;19.20;;;10.00;;
73107;SDS011;61559;50.476;15.588;2024-03-08T08:19:05;23.60;;;10.40;;
73107;SDS011;61559;50.476;15.588;2024-03-08T08:21:36;20.60;;;10.30;;
73107;SDS011;61559;50.476;15.588;2024-03-08T08:24:08;21.10;;;11.60;;
73107;SDS011;61559;50.476;15.588;2024-03-08T08:26:40;19.00;;;9.30;;
73107;SDS011;61559;50.476;15.588;2024-03-08T08:29:14;20.00;;;9.20;;
73107;SDS011;61559;50.476;15.588;2024-03-08T08:31:45;17.80;;;8.70;;
73107;SDS011;61559;50.476;15.588;2024-03-08T08:34:19;21.00;;;9.40;;
73107;SDS011;61559;50.476;15.588;2024-03-08T08:36:56;16.70;;;8.10;;
73107;SDS011;61559;50.476;15.588;2024-03-08T08:39:33;20.30;;;10.00;;
73107;SDS011;61559;50.476;15.588;2024-03-08T08:42:06;22.80;;;9.80;;
73107;SDS011;61559;50.476;15.588;2024-03-08T08:44:46;20.40;;;9.60;;
73107;SDS011;61559;50.476;15.588;2024-03-08T08:47:22;18.10;;;9.10;;
73107;SDS011;61559;50.476;15.588;2024-03-08T08:49:54;19.60;;;9.50;;
73107;SDS011;61559;50.476;15.588;2024-03-08T08:54:55;15.30;;;7.70;;
73107;SDS011;61559;50.476;15.588;2024-03-08T08:57:26;18.60;;;9.30;;
73107;SDS011;61559;50.476;15.588;2024-03-08T09:02:28;15.10;;;7.90;;
73107;SDS011;61559;50.476;15.588;2024-03-08T09:05:03;14.60;;;7.50;;
73107;SDS011;61559;50.476;15.588;2024-03-08T09:07:36;20.10;;;8.30;;
73107;SDS011;61559;50.476;15.588;2024-03-08T09:10:08;16.40;;;8.70;;
73107;SDS011;61559;50.476;15.588;2024-03-08T09:15:15;16.00;;;7.90;;
73107;SDS011;61559;50.476;15.588;2024-03-08T09:17:49;20.10;;;9.20;;
73107;SDS011;61559;50.476;15.588;2024-03-08T09:22:53;16.80;;;7.70;;
73107;SDS011;61559;50.476;15.588;2024-03-08T09:25:24;15.00;;;7.50;;
73107;SDS011;61559;50.476;15.588;2024-03-08T09:27:56;16.80;;;8.40;;
73107;SDS011;61559;50.476;15.588;2024-03-08T09:30:27;14.70;;;7.90;;
73107;SDS011;61559;50.476;15.588;2024-03-08T09:32:59;16.40;;;8.50;;
73107;SDS011;61559;50.476;15.588;2024-03-08T09:35:34;14.10;;;6.90;;
73107;SDS011;61559;50.476;15.588;2024-03-08T09:40:40;13.90;;;6.10;;
73107;SDS011;61559;50.476;15.588;2024-03-08T09:43:13;9.60;;;5.50;;
73107;SDS011;61559;50.476;15.588;2024-03-08T09:45:46;12.00;;;5.90;;
73107;SDS011;61559;50.476;15.588;2024-03-08T09:52:14;10.40;;;5.50;;
73107;SDS011;61559;50.476;15.588;2024-03-08T09:55:49;11.30;;;6.40;;
73107;SDS011;61559;50.476;15.588;2024-03-08T09:58:24;13.50;;;6.10;;
73107;SDS011;61559;50.476;15.588;2024-03-08T10:01:17;14.50;;;6.00;;
73107;SDS011;61559;50.476;15.588;2024-03-08T10:03:53;11.80;;;5.70;;
73107;SDS011;61559;50.476;15.588;2024-03-08T10:06:27;11.70;;;6.80;;
73107;SDS011;61559;50.476;15.588;2024-03-08T10:09:01;14.10;;;7.00;;
73107;SDS011;61559;50.476;15.588;2024-03-08T10:11:34;12.00;;;6.60;;
73107;SDS011;61559;50.476;15.588;2024-03-08T10:14:06;10.70;;;6.50;;
73107;SDS011;61559;50.476;15.588;2024-03-08T10:16:39;9.90;;;5.50;;
73107;SDS011;61559;50.476;15.588;2024-03-08T10:19:12;9.30;;;5.00;;
73107;SDS011;61559;50.476;15.588;2024-03-08T10:21:50;12.30;;;5.50;;
73107;SDS011;61559;50.476;15.588;2024-03-08T10:24:23;10.50;;;5.30;;
73107;SDS011;61559;50.476;15.588;2024-03-08T10:26:54;10.50;;;5.30;;
73107;SDS011;61559;50.476;15.588;2024-03-08T10:29:38;7.70;;;4.40;;
73107;SDS011;61559;50.476;15.588;2024-03-08T10:32:12;8.30;;;5.30;;
73107;SDS011;61559;50.476;15.588;2024-03-08T10:34:54;9.00;;;4.60;;
73107;SDS011;61559;50.476;15.588;2024-03-08T10:37:25;7.80;;;4.80;;
73107;SDS011;61559;50.476;15.588;2024-03-08T10:40:03;9.80;;;4.90;;
73107;SDS011;61559;50.476;15.588;2024-03-08T10:42:40;7.70;;;4.30;;
73107;SDS011;61559;50.476;15.588;2024-03-08T10:47:53;8.60;;;4.70;;
73107;SDS011;61559;50.476;15.588;2024-03-08T10:50:32;9.40;;;4.60;;
73107;SDS011;61559;50.476;15.588;2024-03-08T10:53:06;9.80;;;5.20;;
73107;SDS011;61559;50.476;15.588;2024-03-08T10:55:39;10.40;;;5.50;;
73107;SDS011;61559;50.476;15.588;2024-03-08T10:58:12;9.60;;;5.60;;
73107;SDS011;61559;50.476;15.588;2024-03-08T11:00:44;8.30;;;4.60;;
73107;SDS011;61559;50.476;15.588;2024-03-08T11:06:29;11.00;;;5.50;;
73107;SDS011;61559;50.476;15.588;2024-03-08T11:09:12;11.10;;;5.50;;
73107;SDS011;61559;50.476;15.588;2024-03-08T11:14:54;9.00;;;5.00;;
73107;SDS011;61559;50.476;15.588;2024-03-08T11:17:42;11.20;;;4.90;;
73107;SDS011;61559;50.476;15.588;2024-03-08T11:20:18;10.70;;;6.10;;
73107;SDS011;61559;50.476;15.588;2024-03-08T11:22:52;9.50;;;4.80;;
73107;SDS011;61559;50.476;15.588;2024-03-08T11:25:31;9.40;;;5.30;;
73107;SDS011;61559;50.476;15.588;2024-03-08T11:28:14;9.50;;;4.80;;
73107;SDS011;61559;50.476;15.588;2024-03-08T11:33:56;9.60;;;5.90;;
73107;SDS011;61559;50.476;15.588;2024-03-08T11:36:28;8.70;;;4.90;;
73107;SDS011;61559;50.476;15.588;2024-03-08T11:39:03;8.90;;;5.80;;
73107;SDS011;61559;50.476;15.588;2024-03-08T11:41:43;9.30;;;5.40;;
73107;SDS011;61559;50.476;15.588;2024-03-08T11:44:15;9.80;;;5.20;;
73107;SDS011;61559;50.476;15.588;2024-03-08T11:46:48;9.00;;;5.60;;
73107;SDS011;61559;50.476;15.588;2024-03-08T11:49:20;9.20;;;5.30;;
73107;SDS011;61559;50.476;15.588;2024-03-08T11:51:53;12.20;;;5.70;;
73107;SDS011;61559;50.476;15.588;2024-03-08T11:54:26;8.80;;;4.90;;
73107;SDS011;61559;50.476;15.588;2024-03-08T11:56:58;8.60;;;4.90;;
73107;SDS011;61559;50.476;15.588;2024-03-08T11:59:30;8.30;;;4.90;;
73107;SDS011;61559;50.476;15.588;2024-03-08T12:02:03;8.90;;;5.10;;
73107;SDS011;61559;50.476;15.588;2024-03-08T12:04:38;9.50;;;5.60;;
73107;SDS011;61559;50.476;15.588;2024-03-08T12:07:10;8.40;;;5.20;;
73107;SDS011;61559;50.476;15.588;2024-03-08T12:09:43;8.40;;;4.80;;
73107;SDS011;61559;50.476;15.588;2024-03-08T12:12:40;7.40;;;4.80;;
73107;SDS011;61559;50.476;15.588;2024-03-08T12:15:13;8.30;;;5.00;;
73107;SDS011;61559;50.476;15.588;2024-03-08T12:17:48;10.60;;;5.10;;
73107;SDS011;61559;50.476;15.588;2024-03-08T12:20:21;9.80;;;5.70;;
73107;SDS011;61559;50.476;15.588;2024-03-08T12:22:55;13.20;;;7.10;;
73107;SDS011;61559;50.476;15.588;2024-03-08T12:25:27;14.30;;;7.50;;
73107;SDS011;61559;50.476;15.588;2024-03-08T12:28:08;16.30;;;8.30;;
73107;SDS011;61559;50.476;15.588;2024-03-08T12:30:51;13.60;;;7.40;;
73107;SDS011;61559;50.476;15.588;2024-03-08T12:33:25;12.80;;;6.70;;
73107;SDS011;61559;50.476;15.588;2024-03-08T12:35:57;12.80;;;7.30;;
73107;SDS011;61559;50.476;15.588;2024-03-08T12:38:29;14.60;;;8.40;;
73107;SDS011;61559;50.476;15.588;2024-03-08T12:41:00;15.10;;;8.30;;
73107;SDS011;61559;50.476;15.588;2024-03-08T12:43:33;14.80;;;8.00;;
73107;SDS011;61559;50.476;15.588;2024-03-08T12:46:05;13.40;;;7.70;;
73107;SDS011;61559;50.476;15.588;2024-03-08T12:48:37;15.00;;;7.30;;
73107;SDS011;61559;50.476;15.588;2024-03-08T12:51:09;11.80;;;6.20;;
73107;SDS011;61559;50.476;15.588;2024-03-08T12:53:40;15.50;;;7.40;;
73107;SDS011;61559;50.476;15.588;2024-03-08T12:56:16;16.10;;;8.20;;
73107;SDS011;61559;50.476;15.588;2024-03-08T12:58:58;17.10;;;8.30;;
73107;SDS011;61559;50.476;15.588;2024-03-08T13:01:33;17.90;;;9.10;;
73107;SDS011;61559;50.476;15.588;2024-03-08T13:04:06;16.20;;;8.40;;
73107;SDS011;61559;50.476;15.588;2024-03-08T13:06:41;14.20;;;8.10;;
73107;SDS011;61559;50.476;15.588;2024-03-08T13:09:17;15.00;;;7.70;;
73107;SDS011;61559;50.476;15.588;2024-03-08T13:11:48;13.10;;;7.10;;
73107;SDS011;61559;50.476;15.588;2024-03-08T13:14:20;16.10;;;8.20;;
73107;SDS011;61559;50.476;15.588;2024-03-08T13:16:52;13.50;;;7.80;;
73107;SDS011;61559;50.476;15.588;2024-03-08T13:19:24;14.60;;;8.20;;
73107;SDS011;61559;50.476;15.588;2024-03-08T13:21:56;12.90;;;7.30;;
73107;SDS011;61559;50.476;15.588;2024-03-08T13:24:28;13.60;;;7.30;;
73107;SDS011;61559;50.476;15.588;2024-03-08T13:26:59;15.10;;;7.60;;
73107;SDS011;61559;50.476;15.588;2024-03-08T13:29:39;17.00;;;8.90;;
73107;SDS011;61559;50.476;15.588;2024-03-08T13:32:11;13.80;;;8.10;;
73107;SDS011;61559;50.476;15.588;2024-03-08T13:34:43;14.10;;;8.10;;
73107;SDS011;61559;50.476;15.588;2024-03-08T13:37:17;15.80;;;8.00;;
73107;SDS011;61559;50.476;15.588;2024-03-08T13:39:48;16.20;;;9.00;;
73107;SDS011;61559;50.476;15.588;2024-03-08T13:42:20;13.40;;;7.00;;
73107;SDS011;61559;50.476;15.588;2024-03-08T13:44:51;15.40;;;8.40;;
73107;SDS011;61559;50.476;15.588;2024-03-08T13:47:22;15.50;;;8.80;;
73107;SDS011;61559;50.476;15.588;2024-03-08T13:49:54;14.70;;;8.20;;
73107;SDS011;61559;50.476;15.588;2024-03-08T13:52:26;14.80;;;7.70;;
73107;SDS011;61559;50.476;15.588;2024-03-08T13:54:58;15.90;;;8.20;;
73107;SDS011;61559;50.476;15.588;2024-03-08T13:57:32;15.50;;;8.60;;
73107;SDS011;61559;50.476;15.588;2024-03-08T14:00:05;15.10;;;8.20;;
73107;SDS011;61559;50.476;15.588;2024-03-08T14:02:40;17.50;;;9.10;;
73107;SDS011;61559;50.476;15.588;2024-03-08T14:05:11;13.60;;;7.70;;
73107;SDS011;61559;50.476;15.588;2024-03-08T14:07:44;15.50;;;8.90;;
73107;SDS011;61559;50.476;15.588;2024-03-08T14:10:18;14.60;;;7.90;;
73107;SDS011;61559;50.476;15.588;2024-03-08T14:12:51;16.80;;;8.10;;
73107;SDS011;61559;50.476;15.588;2024-03-08T14:15:23;15.70;;;8.10;;
73107;SDS011;61559;50.476;15.588;2024-03-08T14:17:54;14.30;;;7.50;;
73107;SDS011;61559;50.476;15.588;2024-03-08T14:20:27;15.20;;;8.40;;
73107;SDS011;61559;50.476;15.588;2024-03-08T14:22:58;13.80;;;6.80;;
73107;SDS011;61559;50.476;15.588;2024-03-08T14:25:32;12.10;;;7.50;;
73107;SDS011;61559;50.476;15.588;2024-03-08T14:28:04;15.10;;;7.20;;
73107;SDS011;61559;50.476;15.588;2024-03-08T14:30:36;12.90;;;7.40;;
73107;SDS011;61559;50.476;15.588;2024-03-08T14:33:09;13.00;;;6.80;;
73107;SDS011;61559;50.476;15.588;2024-03-08T14:35:41;12.50;;;6.90;;
73107;SDS011;61559;50.476;15.588;2024-03-08T14:38:14;11.90;;;7.20;;
73107;SDS011;61559;50.476;15.588;2024-03-08T14:40:46;12.80;;;6.70;;
73107;SDS011;61559;50.476;15.588;2024-03-08T14:43:17;12.60;;;7.00;;
73107;SDS011;61559;50.476;15.588;2024-03-08T14:45:50;14.50;;;7.80;;
73107;SDS011;61559;50.476;15.588;2024-03-08T14:48:21;14.50;;;7.60;;
73107;SDS011;61559;50.476;15.588;2024-03-08T14:50:53;23.50;;;14.60;;
73107;SDS011;61559;50.476;15.588;2024-03-08T14:53:24;16.60;;;9.50;;
73107;SDS011;61559;50.476;15.588;2024-03-08T14:55:56;12.90;;;7.50;;
73107;SDS011;61559;50.476;15.588;2024-03-08T15:01:52;26.50;;;10.80;;
73107;SDS011;61559;50.476;15.588;2024-03-08T15:04:23;19.30;;;8.90;;
73107;SDS011;61559;50.476;15.588;2024-03-08T15:06:54;15.90;;;9.20;;
73107;SDS011;61559;50.476;15.588;2024-03-08T15:09:26;37.20;;;18.80;;
73107;SDS011;61559;50.476;15.588;2024-03-08T15:11:58;24.60;;;14.10;;
73107;SDS011;61559;50.476;15.588;2024-03-08T15:14:30;192.90;;;67.60;;
73107;SDS011;61559;50.476;15.588;2024-03-08T15:17:02;40.90;;;16.50;;
73107;SDS011;61559;50.476;15.588;2024-03-08T15:19:39;15.40;;;7.40;;
73107;SDS011;61559;50.476;15.588;2024-03-08T15:22:11;18.30;;;9.30;;
73107;SDS011;61559;50.476;15.588;2024-03-08T15:24:44;216.20;;;90.10;;
73107;SDS011;61559;50.476;15.588;2024-03-08T15:27:16;162.20;;;59.30;;
73107;SDS011;61559;50.476;15.588;2024-03-08T15:29:48;29.30;;;13.60;;
73107;SDS011;61559;50.476;15.588;2024-03-08T15:32:24;19.90;;;9.00;;
73107;SDS011;61559;50.476;15.588;2024-03-08T15:34:57;20.40;;;9.60;;
73107;SDS011;61559;50.476;15.588;2024-03-08T15:37:30;24.50;;;10.20;;
73107;SDS011;61559;50.476;15.588;2024-03-08T15:40:02;32.80;;;13.70;;
73107;SDS011;61559;50.476;15.588;2024-03-08T15:42:35;340.20;;;115.20;;
73107;SDS011;61559;50.476;15.588;2024-03-08T15:45:08;355.70;;;132.60;;
73107;SDS011;61559;50.476;15.588;2024-03-08T15:47:41;152.70;;;51.00;;